Time;durP1;ratioP1;P1;durP2;ratioP2;P2;SDS_P1;SDS_P2;PMS_P1;PMS_P2;Temp;Humidity;BMP_temperature;BMP_pressure;BME280_temperature;BME280_humidity;BME280_pressure;Samples;Min_cycle;Max_cycle;Signal;HPM_P1;HPM_P2
2023/08/12 00:01:24;;;;;;;10.98;7.25;;;;;;;16.14;100.00;99794.97;5138099;28;20043;-61
2023/08/12 00:03:50;;;;;;;10.02;7.43;;;;;;;16.19;100.00;99786.28;5137611;28;20051;-62
2023/08/12 00:06:16;;;;;;;11.77;7.10;;;;;;;16.13;100.00;99793.41;5137916;28;20058;-63
2023/08/12 00:08:43;;;;;;;11.88;7.10;;;;;;;16.06;100.00;99785.03;5137822;27;20115;-63
2023/08/12 00:11:09;;;;;;;8.20;6.40;;;;;;;16.07;100.00;99773.59;5137741;28;20051;-60
2023/08/12 00:13:35;;;;;;;15.25;7.50;;;;;;;16.10;100.00;99772.03;5137756;28;20385;-60
2023/08/12 00:16:01;;;;;;;9.38;6.57;;;;;;;16.10;100.00;99775.59;5136752;27;20047;-61
2023/08/12 00:18:27;;;;;;;13.70;7.28;;;;;;;16.06;100.00;99773.97;5137675;28;20450;-62
2023/08/12 00:20:53;;;;;;;9.98;6.88;;;;;;;16.06;100.00;99785.03;5137264;28;20046;-62
2023/08/12 00:23:19;;;;;;;14.60;7.43;;;;;;;15.96;100.00;99769.97;5137781;28;20099;-61
2023/08/12 00:25:45;;;;;;;10.13;7.57;;;;;;;16.03;100.00;99771.97;5137485;28;20108;-60
2023/08/12 00:28:12;;;;;;;13.73;7.28;;;;;;;15.99;100.00;99771.97;5137873;28;20043;-60
2023/08/12 00:30:38;;;;;;;11.00;7.43;;;;;;;16.06;100.00;99771.22;5137294;28;20142;-61
2023/08/12 00:33:04;;;;;;;9.23;7.22;;;;;;;16.03;100.00;99771.97;5137729;28;20070;-60
2023/08/12 00:35:30;;;;;;;9.40;7.15;;;;;;;15.82;100.00;99754.09;5137469;28;20083;-62
2023/08/12 00:37:56;;;;;;;11.07;7.38;;;;;;;15.95;100.00;99743.50;5137381;27;20129;-63
2023/08/12 00:40:22;;;;;;;11.95;7.60;;;;;;;15.86;100.00;99741.09;5137214;28;20290;-63
2023/08/12 00:42:48;;;;;;;10.20;7.60;;;;;;;15.93;100.00;99740.34;5137038;28;20138;-63
2023/08/12 00:45:14;;;;;;;12.38;7.25;;;;;;;15.83;100.00;99714.22;5137557;28;20133;-62
2023/08/12 00:47:41;;;;;;;21.70;7.60;;;;;;;15.77;100.00;99708.25;5137162;28;20147;-62
2023/08/12 00:50:12;;;;;;;11.48;7.22;;;;;;;15.73;100.00;99706.66;5137432;28;20071;-61
2023/08/12 00:52:39;;;;;;;10.30;7.15;;;;;;;15.83;100.00;99702.34;5137078;28;20138;-62
2023/08/12 00:55:06;;;;;;;10.05;6.93;;;;;;;15.87;100.00;99706.75;5137463;28;20374;-61
2023/08/12 00:57:32;;;;;;;10.68;6.43;;;;;;;15.84;100.00;99710.28;5137003;28;20055;-63
2023/08/12 00:59:59;;;;;;;10.02;6.78;;;;;;;15.54;100.00;99704.94;5137574;28;20350;-62
2023/08/12 01:02:26;;;;;;;11.30;8.18;;;;;;;15.70;100.00;99696.38;5136988;28;20047;-61
2023/08/12 01:04:52;;;;;;;10.52;7.03;;;;;;;15.85;100.00;99684.19;5137084;28;20051;-61
2023/08/12 01:07:18;;;;;;;14.02;7.25;;;;;;;15.86;100.00;99699.63;5136837;27;20051;-62
2023/08/12 01:09:44;;;;;;;13.23;8.00;;;;;;;15.88;100.00;99699.22;5137262;28;20086;-62
2023/08/12 01:12:14;;;;;;;12.70;8.00;;;;;;;15.82;100.00;99704.31;5136910;28;20054;-60
2023/08/12 01:14:56;;;;;;;12.45;7.55;;;;;;;15.70;100.00;99707.44;5136883;28;20057;-61
2023/08/12 01:17:22;;;;;;;8.52;6.45;;;;;;;15.72;100.00;99696.78;5137036;28;20430;-63
2023/08/12 01:19:50;;;;;;;13.05;6.90;;;;;;;15.79;100.00;99696.81;5136589;28;20138;-60
2023/08/12 01:22:18;;;;;;;8.63;6.75;;;;;;;15.77;100.00;99690.88;5137032;28;20405;-61
2023/08/12 01:24:45;;;;;;;10.40;7.60;;;;;;;15.68;100.00;99687.69;5136888;28;20053;-62
2023/08/12 01:27:12;;;;;;;9.63;7.20;;;;;;;15.53;100.00;99692.31;5137609;27;20111;-62
2023/08/12 01:29:41;;;;;;;10.90;6.68;;;;;;;15.71;100.00;99679.41;5140193;28;20072;-60
2023/08/12 01:32:12;;;;;;;12.70;11.57;;;;;;;15.57;100.00;99673.78;5140302;28;20047;-63
2023/08/12 01:34:44;;;;;;;9.75;6.45;;;;;;;15.70;100.00;99675.06;5140437;28;20051;-61
2023/08/12 01:37:13;;;;;;;19.92;17.85;;;;;;;15.62;100.00;99683.66;5139975;27;20134;-61
2023/08/12 01:39:41;;;;;;;8.57;7.43;;;;;;;15.70;100.00;99679.81;5140416;28;20382;-61
2023/08/12 01:42:08;;;;;;;8.23;6.53;;;;;;;15.72;100.00;99691.25;5140006;28;20146;-62
2023/08/12 01:44:34;;;;;;;6.40;5.70;;;;;;;15.65;100.00;99694.72;5140449;28;20330;-62
2023/08/12 01:47:00;;;;;;;13.57;6.57;;;;;;;15.44;100.00;99691.84;5139940;28;20062;-60
2023/08/12 01:49:26;;;;;;;12.10;6.60;;;;;;;15.54;100.00;99689.16;5140322;28;20134;-61
2023/08/12 01:51:52;;;;;;;6.68;5.97;;;;;;;15.36;100.00;99679.16;5139679;28;20142;-62
2023/08/12 01:54:18;;;;;;;12.90;6.63;;;;;;;15.51;100.00;99667.03;5140012;28;20051;-63
2023/08/12 01:56:44;;;;;;;10.68;6.97;;;;;;;15.48;100.00;99674.09;5139780;28;20061;-63
2023/08/12 01:59:10;;;;;;;6.80;6.10;;;;;;;15.36;100.00;99679.16;5139918;28;20055;-63
2023/08/12 02:01:36;;;;;;;10.10;6.30;;;;;;;15.37;100.00;99662.19;5139950;28;20051;-63
2023/08/12 02:04:02;;;;;;;17.80;9.60;;;;;;;15.41;100.00;99674.06;5139582;28;20141;-62
2023/08/12 02:06:28;;;;;;;8.05;5.85;;;;;;;15.35;100.00;99680.34;5139911;28;20141;-61
2023/08/12 02:08:54;;;;;;;9.80;6.72;;;;;;;15.51;100.00;99678.88;5139583;27;20074;-61
2023/08/12 02:11:20;;;;;;;7.78;5.88;;;;;;;15.49;100.00;99688.72;5139781;28;20097;-60
2023/08/12 02:13:46;;;;;;;7.97;6.05;;;;;;;15.29;100.00;99691.75;5139781;28;20043;-61
2023/08/12 02:16:12;;;;;;;10.50;6.43;;;;;;;15.23;100.00;99686.97;5139815;28;20050;-63
2023/08/12 02:18:38;;;;;;;6.53;5.72;;;;;;;15.25;100.00;99668.03;5139444;28;20078;-61
2023/08/12 02:21:04;;;;;;;10.13;9.13;;;;;;;15.32;100.00;99681.88;5139725;28;20047;-63
2023/08/12 02:23:30;;;;;;;9.90;9.00;;;;;;;15.29;100.00;99679.91;5139262;28;20138;-63
2023/08/12 02:25:56;;;;;;;7.35;6.10;;;;;;;15.36;100.00;99679.97;5139666;28;20100;-63
2023/08/12 02:28:22;;;;;;;8.82;6.22;;;;;;;15.29;100.00;99690.94;5139491;28;20137;-63
2023/08/12 02:30:48;;;;;;;10.63;5.68;;;;;;;15.22;100.00;99699.19;5139350;28;20447;-62
2023/08/12 02:33:14;;;;;;;10.20;6.32;;;;;;;15.26;100.00;99708.28;5139667;28;20097;-62
2023/08/12 02:35:40;;;;;;;12.07;6.43;;;;;;;15.29;100.00;99704.75;5139031;28;20142;-63
2023/08/12 02:38:06;;;;;;;9.68;5.82;;;;;;;15.28;100.00;99717.00;5139391;27;20058;-62
2023/08/12 02:40:32;;;;;;;7.60;6.00;;;;;;;15.25;100.00;99723.28;5138208;27;20359;-62
2023/08/12 02:42:58;;;;;;;8.73;5.80;;;;;;;15.11;100.00;99717.66;5139323;28;20051;-61
2023/08/12 02:45:24;;;;;;;8.13;5.80;;;;;;;15.24;100.00;99714.19;5138959;28;20047;-61
2023/08/12 02:47:50;;;;;;;12.10;6.38;;;;;;;15.22;100.00;99711.00;5139433;28;20069;-60
2023/08/12 02:50:16;;;;;;;8.77;6.25;;;;;;;15.15;100.00;99715.69;5138882;28;20058;-61
2023/08/12 02:52:42;;;;;;;7.20;5.80;;;;;;;15.18;100.00;99717.69;5139319;28;20347;-63
2023/08/12 02:55:09;;;;;;;9.50;5.82;;;;;;;15.28;100.00;99728.03;5138826;28;20051;-63
2023/08/12 02:57:35;;;;;;;10.07;6.30;;;;;;;15.22;100.00;99719.31;5138948;28;20115;-62
2023/08/12 03:00:00;;;;;;;6.43;5.53;;;;;;;15.22;100.00;99726.81;5139071;28;20055;-62
2023/08/12 03:02:26;;;;;;;10.80;5.90;;;;;;;15.22;100.00;99732.31;5138534;28;20453;-62
2023/08/12 03:04:53;;;;;;;7.13;5.43;;;;;;;15.26;100.00;99735.91;5139038;28;20146;-63
2023/08/12 03:07:20;;;;;;;7.93;7.03;;;;;;;15.23;100.00;99743.00;5138643;27;20047;-61
2023/08/12 03:09:46;;;;;;;9.05;5.60;;;;;;;15.33;100.00;99743.44;5138961;28;20050;-62
2023/08/12 03:12:12;;;;;;;10.88;5.60;;;;;;;15.23;100.00;99758.78;5138435;28;20439;-62
2023/08/12 03:14:37;;;;;;;6.57;5.18;;;;;;;15.26;100.00;99760.75;5139118;28;20043;-61
2023/08/12 03:17:04;;;;;;;10.05;5.05;;;;;;;15.29;100.00;99771.88;5138427;28;20094;-60
2023/08/12 03:19:30;;;;;;;7.00;4.70;;;;;;;15.29;100.00;99779.34;5138963;28;20051;-63
2023/08/12 03:21:55;;;;;;;9.63;6.30;;;;;;;15.42;100.00;99777.06;5138249;28;20435;-63
2023/08/12 03:24:22;;;;;;;7.20;4.63;;;;;;;15.44;100.00;99781.06;5138562;28;20043;-63
2023/08/12 03:26:48;;;;;;;7.07;5.10;;;;;;;15.87;100.00;99803.50;5138350;28;20452;-63
2023/08/12 03:29:14;;;;;;;6.65;4.55;;;;;;;16.04;100.00;99856.56;5138537;28;20051;-63
2023/08/12 03:31:40;;;;;;;9.05;4.85;;;;;;;16.54;100.00;99892.81;5138167;28;20502;-61
2023/08/12 03:34:06;;;;;;;8.23;4.32;;;;;;;17.01;100.00;99916.78;5138183;28;20103;-60
2023/08/12 03:36:32;;;;;;;4.47;4.05;;;;;;;17.08;100.00;99896.63;5138494;28;20049;-61
2023/08/12 03:38:58;;;;;;;5.82;4.13;;;;;;;17.33;100.00;99852.38;5138163;27;20047;-60
2023/08/12 03:41:24;;;;;;;4.22;3.78;;;;;;;17.48;100.00;99781.09;5138429;28;20051;-64
2023/08/12 03:43:50;;;;;;;5.53;3.83;;;;;;;17.98;100.00;99672.88;5138009;28;20051;-63
2023/08/12 03:46:17;;;;;;;4.05;3.40;;;;;;;18.10;100.00;99551.13;5138503;28;20146;-64
2023/08/12 03:48:43;;;;;;;7.40;3.70;;;;;;;18.54;100.00;99344.16;5137923;28;20191;-62
2023/08/12 03:51:09;;;;;;;5.47;2.80;;;;;;;18.76;100.00;99139.22;5137107;27;20423;-61
2023/08/12 03:53:35;;;;;;;7.30;3.40;;;;;;;18.95;100.00;99012.72;5137880;28;20146;-61
2023/08/12 03:56:01;;;;;;;3.92;3.60;;;;;;;19.11;100.00;98889.78;5138003;28;20142;-61
2023/08/12 03:58:27;;;;;;;4.63;3.58;;;;;;;19.28;100.00;98841.34;5137923;28;20079;-62
2023/08/12 04:00:53;;;;;;;3.90;3.00;;;;;;;19.78;100.00;98655.88;5137944;28;20042;-61
2023/08/12 04:03:19;;;;;;;5.15;3.15;;;;;;;19.88;100.00;98554.66;5138076;28;20366;-62
2023/08/12 04:05:49;;;;;;;7.45;3.35;;;;;;;20.28;100.00;98511.72;5138038;28;20134;-63
2023/08/12 04:08:15;;;;;;;4.70;4.00;;;;;;;20.35;100.00;98466.94;5138040;27;20105;-63
2023/08/12 04:10:45;;;;;;;4.65;3.38;;;;;;;20.40;100.00;98461.59;5137687;28;20416;-61
2023/08/12 04:13:10;;;;;;;3.78;3.15;;;;;;;20.66;100.00;98456.78;5137994;28;20138;-62
2023/08/12 04:15:37;;;;;;;2.95;2.70;;;;;;;20.66;100.00;98442.84;5137517;28;20374;-64
2023/08/12 04:18:04;;;;;;;4.90;3.60;;;;;;;20.60;100.00;98443.88;5138005;28;20051;-62
2023/08/12 04:20:30;;;;;;;4.43;3.20;;;;;;;20.85;100.00;98443.75;5137433;28;20138;-62
2023/08/12 04:22:56;;;;;;;2.78;2.58;;;;;;;21.17;100.00;98447.41;5137633;28;20145;-64
2023/08/12 04:25:22;;;;;;;3.10;2.80;;;;;;;21.33;100.00;98477.13;5137718;28;20055;-64
2023/08/12 04:27:49;;;;;;;3.25;2.75;;;;;;;21.36;100.00;98476.25;5137358;28;20051;-63
2023/08/12 04:30:15;;;;;;;3.40;2.80;;;;;;;20.86;100.00;98462.06;5137492;28;20085;-63
2023/08/12 04:32:42;;;;;;;2.83;2.63;;;;;;;21.69;100.00;98503.69;5137445;28;20134;-64
2023/08/12 04:35:08;;;;;;;7.28;2.90;;;;;;;21.61;100.00;98529.06;5137697;28;20051;-63
2023/08/12 04:37:35;;;;;;;2.83;2.63;;;;;;;22.05;100.00;98509.44;5137145;27;20057;-61
2023/08/12 04:40:03;;;;;;;3.17;2.83;;;;;;;22.02;100.00;98560.59;5137669;28;20289;-63
2023/08/12 04:42:29;;;;;;;3.47;2.78;;;;;;;21.64;100.00;98544.13;5137393;28;20051;-63
2023/08/12 04:44:55;;;;;;;4.55;3.15;;;;;;;22.18;100.00;98551.25;5137593;28;20043;-62
2023/08/12 04:47:21;;;;;;;3.35;2.90;;;;;;;22.65;100.00;98619.25;5137006;28;20096;-60
2023/08/12 04:49:47;;;;;;;5.63;3.15;;;;;;;22.89;100.00;98658.59;5137368;28;20061;-61
2023/08/12 04:52:14;;;;;;;3.13;2.83;;;;;;;22.99;100.00;98688.16;5137054;28;20542;-62
2023/08/12 04:54:40;;;;;;;3.90;3.03;;;;;;;23.19;100.00;98699.75;5137017;28;20065;-64
2023/08/12 04:57:06;;;;;;;3.90;2.95;;;;;;;23.24;100.00;98687.94;5137287;28;20082;-64
2023/08/12 04:59:31;;;;;;;6.57;2.58;;;;;;;23.45;100.00;98697.44;5137120;28;20153;-62
2023/08/12 05:01:57;;;;;;;5.35;2.35;;;;;;;23.27;100.00;98685.47;5137266;27;20043;-60
2023/08/12 05:04:23;;;;;;;3.53;2.38;;;;;;;23.34;100.00;98688.72;5140521;28;20051;-62
2023/08/12 05:06:50;;;;;;;5.70;2.05;;;;;;;23.98;100.00;98774.81;5140837;28;20142;-61
2023/08/12 05:09:16;;;;;;;3.65;2.70;;;;;;;23.82;100.00;98803.88;5140614;27;20138;-62
2023/08/12 05:11:42;;;;;;;6.93;2.00;;;;;;;23.55;100.00;98719.84;5140864;28;20191;-62
2023/08/12 05:14:08;;;;;;;2.80;2.55;;;;;;;23.49;100.00;98731.66;5140972;28;20047;-62
2023/08/12 05:16:34;;;;;;;2.85;2.58;;;;;;;24.11;100.00;98788.66;5140915;28;20055;-63
2023/08/12 05:19:00;;;;;;;4.47;2.58;;;;;;;24.25;100.00;98782.44;5140299;28;20061;-62
2023/08/12 05:21:26;;;;;;;4.07;2.60;;;;;;;24.65;100.00;98845.94;5140273;28;20051;-61
2023/08/12 05:23:53;;;;;;;2.65;2.15;;;;;;;24.52;100.00;98846.13;5140597;28;20062;-65
2023/08/12 05:26:20;;;;;;;5.43;2.22;;;;;;;24.13;100.00;98808.59;5140425;28;20137;-65
2023/08/12 05:28:45;;;;;;;3.53;2.20;;;;;;;24.40;100.00;98831.03;5140387;28;20054;-62
2023/08/12 05:31:11;;;;;;;3.10;2.10;;;;;;;24.51;100.00;98827.75;5140559;28;20138;-62
2023/08/12 05:33:37;;;;;;;2.83;2.50;;;;;;;24.25;100.00;98841.25;5140575;28;20051;-63
2023/08/12 05:36:04;;;;;;;4.65;2.50;;;;;;;24.44;100.00;98833.69;5140063;28;20337;-64
2023/08/12 05:38:30;;;;;;;5.47;2.35;;;;;;;24.98;100.00;98834.84;5140451;27;20099;-61
2023/08/12 05:40:56;;;;;;;5.28;2.00;;;;;;;24.54;100.00;98868.06;5140068;28;20066;-61
2023/08/12 05:43:23;;;;;;;6.35;2.70;;;;;;;25.00;100.00;98927.69;5139907;28;20073;-63
2023/08/12 05:45:49;;;;;;;5.03;2.10;;;;;;;24.87;100.00;98888.59;5139903;28;20413;-62
2023/08/12 05:48:15;;;;;;;3.83;2.00;;;;;;;25.79;100.00;98969.78;5140364;28;20047;-63
2023/08/12 05:50:41;;;;;;;7.63;2.55;;;;;;;25.32;100.00;98948.72;5139899;28;20450;-63
2023/08/12 05:53:06;;;;;;;2.13;1.92;;;;;;;25.66;100.00;98960.00;5140019;28;20043;-63
2023/08/12 05:55:34;;;;;;;3.33;2.17;;;;;;;25.74;100.00;98961.22;5140342;28;20133;-63
2023/08/12 05:58:01;;;;;;;2.65;2.15;;;;;;;25.44;100.00;98943.38;5139648;28;20061;-61
2023/08/12 06:00:27;;;;;;;6.07;2.30;;;;;;;25.95;100.00;98991.13;5139915;28;20057;-62
2023/08/12 06:02:52;;;;;;;4.97;2.30;;;;;;;25.70;100.00;98995.09;5139919;28;20141;-62
2023/08/12 06:05:18;;;;;;;6.10;2.30;;;;;;;26.08;100.00;99015.41;5140004;28;20062;-62
2023/08/12 06:07:44;;;;;;;4.80;2.00;;;;;;;25.31;100.00;98974.44;5139632;27;20047;-60
2023/08/12 06:10:10;;;;;;;2.20;1.60;;;;;;;26.31;100.00;98994.25;5140014;28;20134;-61
2023/08/12 06:12:36;;;;;;;3.78;1.70;;;;;;;26.06;100.00;99041.19;5139560;28;20482;-62
2023/08/12 06:15:04;;;;;;;2.08;1.90;;;;;;;26.99;100.00;99050.69;5138989;27;20403;-63
2023/08/12 06:17:30;;;;;;;2.53;1.75;;;;;;;27.16;100.00;99068.72;5139642;28;20051;-62
2023/08/12 06:19:56;;;;;;;3.30;2.30;;;;;;;26.79;100.00;99059.75;5139620;28;20047;-62
2023/08/12 06:22:22;;;;;;;3.58;1.98;;;;;;;26.63;100.00;99057.34;5139542;28;20092;-61
2023/08/12 06:24:48;;;;;;;2.92;2.25;;;;;;;26.79;100.00;99045.69;5139444;28;20404;-61
2023/08/12 06:27:13;;;;;;;4.05;2.20;;;;;;;26.65;100.00;99063.25;5139634;28;20423;-62
2023/08/12 06:29:39;;;;;;;4.53;1.88;;;;;;;26.01;100.00;99042.59;5139416;28;20051;-63
2023/08/12 06:32:06;;;;;;;3.63;2.33;;;;;;;27.02;100.00;99044.09;5139402;28;20084;-64
2023/08/12 06:34:32;;;;;;;5.45;2.10;;;;;;;27.81;100.00;99073.81;5139268;28;20047;-64
2023/08/12 06:36:58;;;;;;;4.28;1.90;;;;;;;28.22;100.00;99086.00;5139555;28;20305;-63
2023/08/12 06:39:24;;;;;;;2.92;1.77;;;;;;;28.27;100.00;99090.19;5139070;27;20436;-62
2023/08/12 06:41:52;;;;;;;3.13;2.20;;;;;;;27.55;100.00;99085.59;5139455;28;20142;-61
2023/08/12 06:44:18;;;;;;;1.67;1.58;;;;;;;27.41;100.00;99073.03;5138943;28;20055;-64
2023/08/12 06:46:44;;;;;;;2.85;1.60;;;;;;;27.79;100.00;99090.41;5139464;28;20139;-64
2023/08/12 06:49:10;;;;;;;4.72;2.00;;;;;;;28.55;100.00;99105.53;5139146;28;20059;-63
2023/08/12 06:51:36;;;;;;;2.30;1.90;;;;;;;27.56;100.00;99089.19;5138842;28;20051;-64
2023/08/12 06:54:02;;;;;;;3.33;2.10;;;;;;;27.38;100.00;99093.72;5139420;28;20142;-64
2023/08/12 06:56:28;;;;;;;3.72;1.98;;;;;;;27.34;100.00;99097.97;5138746;28;20139;-61
2023/08/12 06:58:54;;;;;;;5.53;2.20;;;;;;;26.84;100.00;99106.13;5138978;28;20050;-61
2023/08/12 07:01:20;;;;;;;2.20;1.92;;;;;;;27.20;100.00;99114.34;5138864;28;20058;-62
2023/08/12 07:03:46;;;;;;;2.03;1.90;;;;;;;26.83;100.00;99122.22;5138893;28;20422;-63
2023/08/12 07:06:12;;;;;;;4.30;2.10;;;;;;;27.16;100.00;99116.56;5138645;28;20051;-64
2023/08/12 07:08:38;;;;;;;4.88;1.85;;;;;;;27.65;100.00;99122.88;5139033;27;20225;-63
2023/08/12 07:11:04;;;;;;;2.13;2.00;;;;;;;28.11;100.00;99131.69;5138564;28;20051;-64
2023/08/12 07:13:30;;;;;;;2.90;1.90;;;;;;;27.82;100.00;99138.09;5138828;28;20328;-63
2023/08/12 07:15:56;;;;;;;2.63;1.80;;;;;;;28.40;100.00;99151.94;5138401;28;20051;-61
2023/08/12 07:18:22;;;;;;;5.60;1.80;;;;;;;27.63;100.00;99145.13;5138433;28;20073;-60
2023/08/12 07:20:48;;;;;;;4.57;2.28;;;;;;;27.56;100.00;99142.69;5138433;28;20047;-64
2023/08/12 07:23:15;;;;;;;9.60;1.65;;;;;;;28.64;100.00;99151.81;5138584;28;20051;-62
2023/08/12 07:25:41;;;;;;;4.53;1.80;;;;;;;28.06;100.00;99149.31;5138373;27;20051;-63
2023/08/12 07:28:07;;;;;;;3.35;2.13;;;;;;;27.82;100.00;99145.75;5138407;28;20059;-63
2023/08/12 07:30:35;;;;;;;3.90;1.70;;;;;;;28.75;100.00;99151.97;5138606;28;20051;-62
2023/08/12 07:33:00;;;;;;;2.67;1.92;;;;;;;29.25;98.20;99149.88;5138156;28;20062;-62
2023/08/12 07:35:26;;;;;;;3.83;2.03;;;;;;;28.65;100.00;99156.19;5138630;28;20050;-63
2023/08/12 07:37:52;;;;;;;4.30;1.75;;;;;;;28.95;96.19;99162.53;5138197;27;20508;-64
2023/08/12 07:40:19;;;;;;;2.00;1.90;;;;;;;28.99;97.18;99148.97;5138564;28;20190;-63
2023/08/12 07:42:45;;;;;;;9.77;2.33;;;;;;;27.85;100.00;99154.03;5137938;28;20134;-63
2023/08/12 07:45:11;;;;;;;4.15;1.92;;;;;;;28.09;99.74;99159.59;5138533;28;20098;-64
2023/08/12 07:47:37;;;;;;;4.60;1.98;;;;;;;27.96;100.00;99158.31;5138045;28;20095;-61
2023/08/12 07:50:03;;;;;;;2.53;2.03;;;;;;;27.04;100.00;99144.91;5138227;28;20096;-61
2023/08/12 07:52:29;;;;;;;2.60;1.80;;;;;;;27.06;100.00;99131.13;5138184;28;20051;-61
2023/08/12 07:54:55;;;;;;;2.65;1.73;;;;;;;27.34;100.00;99135.34;5138034;28;20057;-60
2023/08/12 07:57:24;;;;;;;6.45;1.85;;;;;;;27.62;100.00;99129.50;5138133;28;20043;-61
2023/08/12 07:59:50;;;;;;;3.60;1.65;;;;;;;28.09;100.00;99134.25;5137780;28;20054;-63
2023/08/12 08:02:16;;;;;;;2.50;1.92;;;;;;;28.21;100.00;99134.44;5138084;28;20061;-61
2023/08/12 08:04:41;;;;;;;4.53;2.10;;;;;;;28.08;100.00;99132.66;5137733;28;20433;-61
2023/08/12 08:07:08;;;;;;;2.15;1.95;;;;;;;28.61;99.22;99140.22;5137925;27;20141;-59
2023/08/12 08:09:34;;;;;;;1.92;1.63;;;;;;;28.72;96.91;99147.31;5137686;28;20043;-61
2023/08/12 08:12:00;;;;;;;2.03;1.83;;;;;;;28.06;100.00;99134.44;5137990;28;20051;-63
2023/08/12 08:14:27;;;;;;;2.17;1.95;;;;;;;28.37;100.00;99143.16;5137900;28;20055;-62
2023/08/12 08:16:53;;;;;;;4.72;2.03;;;;;;;28.74;100.00;99139.16;5137416;28;20427;-60
2023/08/12 08:19:19;;;;;;;7.43;2.20;;;;;;;28.45;100.00;99137.16;5137690;28;20353;-62
2023/08/12 08:21:45;;;;;;;2.15;1.95;;;;;;;28.18;100.00;99132.56;5137561;28;20058;-62
2023/08/12 08:24:12;;;;;;;2.05;1.67;;;;;;;27.80;100.00;99122.97;5137446;28;20375;-62
2023/08/12 08:26:38;;;;;;;4.35;2.05;;;;;;;28.99;100.00;99123.56;5137520;28;20071;-60
2023/08/12 08:29:04;;;;;;;4.50;1.95;;;;;;;29.12;96.16;99131.75;5137695;28;20134;-63
2023/08/12 08:31:31;;;;;;;5.32;2.10;;;;;;;28.99;91.98;99146.97;5137242;28;20055;-64
2023/08/12 08:33:57;;;;;;;4.18;2.10;;;;;;;29.14;92.05;99148.97;5137729;28;20050;-64
2023/08/12 08:36:23;;;;;;;3.13;1.75;;;;;;;29.55;93.08;99138.44;5137005;27;20054;-63
2023/08/12 08:38:49;;;;;;;4.70;2.00;;;;;;;29.04;91.07;99149.09;5137055;27;20047;-63
2023/08/12 08:41:17;;;;;;;2.20;1.77;;;;;;;27.73;100.00;99123.31;5137191;28;20046;-63
2023/08/12 08:43:44;;;;;;;4.22;2.10;;;;;;;28.38;100.00;99118.56;5137486;28;20050;-64
2023/08/12 08:46:14;;;;;;;3.25;2.13;;;;;;;28.37;100.00;99117.78;5137297;28;20065;-60
2023/08/12 08:48:41;;;;;;;3.03;2.20;;;;;;;28.22;100.00;99119.06;5137295;28;20055;-61
2023/08/12 08:51:09;;;;;;;4.22;1.83;;;;;;;27.87;100.00;99120.53;5137380;28;20047;-62
2023/08/12 08:53:37;;;;;;;6.15;2.13;;;;;;;28.33;100.00;99100.31;5137176;28;20141;-63
2023/08/12 08:56:05;;;;;;;3.50;1.92;;;;;;;27.77;100.00;99107.03;5137069;28;20047;-64
2023/08/12 08:58:31;;;;;;;7.55;2.20;;;;;;;27.11;100.00;99105.16;5137097;28;20150;-64
2023/08/12 09:00:57;;;;;;;4.88;2.03;;;;;;;27.96;100.00;99105.59;5137298;28;20051;-61
2023/08/12 09:03:23;;;;;;;6.10;2.05;;;;;;;27.75;100.00;99115.91;5136900;28;20093;-60
2023/08/12 09:05:51;;;;;;;2.22;1.90;;;;;;;27.95;100.00;99109.63;5137443;28;20196;-62
2023/08/12 09:08:18;;;;;;;1.85;1.75;;;;;;;27.29;100.00;99085.38;5136795;27;20043;-61
2023/08/12 09:10:46;;;;;;;1.90;1.77;;;;;;;27.46;100.00;99096.94;5137250;28;20416;-63
2023/08/12 09:13:13;;;;;;;3.65;2.20;;;;;;;27.76;100.00;99100.63;5136930;28;20065;-62
2023/08/12 09:15:39;;;;;;;3.13;2.17;;;;;;;27.64;100.00;99101.63;5136687;28;20310;-62
2023/08/12 09:18:05;;;;;;;3.60;1.98;;;;;;;27.80;100.00;99097.59;5136777;28;20107;-60
2023/08/12 09:20:32;;;;;;;2.40;1.80;;;;;;;27.79;100.00;99087.56;5136899;28;20138;-61
2023/08/12 09:22:59;;;;;;;5.35;1.95;;;;;;;28.28;95.99;99088.94;5136773;28;20141;-63
2023/08/12 09:25:26;;;;;;;3.45;2.17;;;;;;;27.67;100.00;99092.22;5137017;28;20055;-61
2023/08/12 09:27:54;;;;;;;2.35;2.00;;;;;;;27.85;94.70;99105.38;5137245;28;20047;-60
2023/08/12 09:30:20;;;;;;;4.28;2.10;;;;;;;28.05;94.33;99105.47;5136683;28;20177;-64
2023/08/12 09:32:59;;;;;;;4.55;2.00;;;;;;;27.72;95.74;99090.75;5137072;28;20047;-62
2023/08/12 09:35:35;;;;;;;5.82;2.50;;;;;;;28.33;97.11;99093.88;5136460;28;20416;-62
2023/08/12 09:38:03;;;;;;;5.32;1.98;;;;;;;28.62;94.55;99093.06;5136574;27;20051;-63
2023/08/12 09:40:30;;;;;;;2.80;1.88;;;;;;;27.62;97.11;99095.69;5136800;28;20212;-60
2023/08/12 09:42:56;;;;;;;2.47;1.80;;;;;;;27.34;100.00;99081.88;5136227;28;20492;-61
2023/08/12 09:45:24;;;;;;;3.88;2.28;;;;;;;27.27;100.00;99076.63;5136809;28;20054;-62
2023/08/12 09:47:50;;;;;;;1.80;1.70;;;;;;;27.14;98.32;99076.88;5136379;27;20161;-61
2023/08/12 09:50:16;;;;;;;4.72;1.92;;;;;;;27.08;97.83;99075.94;5140209;28;20051;-62
2023/08/12 09:52:42;;;;;;;5.45;2.13;;;;;;;27.86;93.82;99084.41;5139773;28;20046;-62
2023/08/12 09:55:11;;;;;;;7.32;2.25;;;;;;;26.91;97.27;99081.22;5140181;28;20137;-62
2023/08/12 09:57:43;;;;;;;3.75;2.10;;;;;;;27.43;97.33;99078.97;5139751;28;20416;-62
2023/08/12 10:00:13;;;;;;;3.58;1.73;;;;;;;27.26;99.03;99069.44;5140209;28;20057;-63
2023/08/12 10:02:40;;;;;;;2.55;1.90;;;;;;;27.90;93.50;99079.34;5139848;28;20111;-61
2023/08/12 10:05:10;;;;;;;1.60;1.50;;;;;;;27.35;99.34;99069.34;5139635;28;20485;-62
2023/08/12 10:07:36;;;;;;;3.17;2.25;;;;;;;26.88;100.00;99070.91;5139639;27;20134;-62
2023/08/12 10:10:05;;;;;;;3.75;1.80;;;;;;;26.90;100.00;99068.41;5139712;28;20047;-62
2023/08/12 10:12:32;;;;;;;2.45;1.83;;;;;;;27.72;98.91;99071.81;5139856;28;20055;-61
2023/08/12 10:15:00;;;;;;;2.13;1.80;;;;;;;27.85;94.24;99072.34;5139847;28;20054;-62
2023/08/12 10:17:26;;;;;;;4.82;2.15;;;;;;;27.42;97.12;99079.44;5139830;28;20147;-63
2023/08/12 10:19:55;;;;;;;2.33;1.80;;;;;;;27.81;94.14;99076.63;5139496;28;20051;-61
2023/08/12 10:22:21;;;;;;;4.68;1.98;;;;;;;27.36;88.49;99067.31;5139751;28;20051;-60
2023/08/12 10:24:49;;;;;;;4.72;2.00;;;;;;;26.43;100.00;99072.72;5139376;28;20076;-63
2023/08/12 10:27:17;;;;;;;6.28;2.20;;;;;;;26.09;100.00;99064.72;5139747;28;20494;-62
2023/08/12 10:29:44;;;;;;;3.10;1.77;;;;;;;26.54;100.00;99063.00;5139469;28;20137;-63
2023/08/12 10:32:10;;;;;;;2.67;2.30;;;;;;;26.94;100.00;99059.78;5139410;28;20142;-63
2023/08/12 10:34:36;;;;;;;3.17;2.13;;;;;;;26.41;100.00;99060.38;5139685;28;20043;-61
2023/08/12 10:37:03;;;;;;;2.20;2.10;;;;;;;25.63;100.00;99054.38;5139352;28;20352;-60
2023/08/12 10:39:32;;;;;;;10.65;1.90;;;;;;;26.34;100.00;99063.53;5139390;27;20093;-62
2023/08/12 10:41:58;;;;;;;2.13;1.63;;;;;;;26.72;100.00;99052.44;5139081;28;20047;-63
2023/08/12 10:44:27;;;;;;;6.38;2.20;;;;;;;26.51;100.00;99053.50;5139355;28;20057;-61
2023/08/12 10:46:54;;;;;;;2.90;2.00;;;;;;;26.13;100.00;99045.69;5138976;28;20416;-60
2023/08/12 10:49:21;;;;;;;5.13;2.05;;;;;;;26.27;100.00;99054.19;5139372;28;20431;-63
2023/08/12 10:51:48;;;;;;;2.78;2.17;;;;;;;26.64;100.00;99068.09;5138869;28;20047;-63
2023/08/12 10:54:15;;;;;;;5.50;1.85;;;;;;;26.68;100.00;99065.88;5139330;28;20097;-60
2023/08/12 10:57:08;;;;;;;2.90;2.05;;;;;;;26.71;100.00;99062.13;5139053;28;20047;-60
2023/08/12 10:59:53;;;;;;;4.05;2.03;;;;;;;27.08;100.00;99063.91;5138664;27;20145;-63
2023/08/12 11:02:21;;;;;;;4.07;2.08;;;;;;;26.96;100.00;99062.91;5139001;28;20051;-63
2023/08/12 11:04:49;;;;;;;3.13;2.30;;;;;;;26.69;100.00;99064.66;5138695;28;20329;-60
2023/08/12 11:07:16;;;;;;;3.78;2.10;;;;;;;26.33;100.00;99059.19;5138991;27;20445;-61
2023/08/12 11:09:42;;;;;;;2.35;1.65;;;;;;;24.98;100.00;99047.97;5138572;28;20424;-61
2023/08/12 11:12:08;;;;;;;4.65;1.90;;;;;;;25.36;100.00;99032.75;5139038;28;20059;-61
2023/08/12 11:14:47;;;;;;;7.53;2.25;;;;;;;25.49;100.00;99050.19;5138358;28;20047;-60
2023/08/12 11:17:14;;;;;;;5.18;2.05;;;;;;;25.94;100.00;99037.31;5138639;28;20051;-60
2023/08/12 11:19:41;;;;;;;3.22;1.60;;;;;;;26.12;100.00;99028.03;5138503;28;20428;-61
2023/08/12 11:22:07;;;;;;;6.72;2.13;;;;;;;25.71;100.00;99026.75;5138489;28;20047;-63